createdAt,value
2022-09-15T00:01:11.936Z,527.13
2022-09-15T00:03:39.978Z,529.47
2022-09-15T00:06:08.821Z,523.28
2022-09-15T00:08:36.435Z,526.67
2022-09-15T00:11:08.649Z,528.33
2022-09-15T00:13:37.401Z,528.28
2022-09-15T00:16:05.752Z,527.53
2022-09-15T00:18:34.067Z,526.28
2022-09-15T00:21:09.850Z,529.67
2022-09-15T00:23:37.857Z,526.83
2022-09-15T00:26:11.154Z,528.38
2022-09-15T00:28:38.732Z,528.45
2022-09-15T00:31:09.388Z,527.13
2022-09-15T00:33:37.133Z,528.80
2022-09-15T00:36:06.876Z,529.80
2022-09-15T00:38:36.067Z,527.72
2022-09-15T00:41:04.933Z,527.75
2022-09-15T00:43:59.613Z,528.60
2022-09-15T00:46:39.860Z,528.47
2022-09-15T00:49:15.867Z,529.08
2022-09-15T00:52:04.410Z,527.17
2022-09-15T00:54:53.027Z,531.20
2022-09-15T00:57:55.328Z,512.92
2022-09-15T01:00:25.481Z,529.97
2022-09-15T01:02:53.393Z,528.92
2022-09-15T01:05:24.100Z,527.70
2022-09-15T01:08:11.891Z,530.90
2022-09-15T01:10:41.447Z,530.63
2022-09-15T01:13:12.081Z,532.20
2022-09-15T01:15:39.559Z,530.70
2022-09-15T01:18:19.284Z,525.67
2022-09-15T01:21:18.173Z,526.15
2022-09-15T01:23:56.688Z,526.97
2022-09-15T01:26:52.885Z,532.67
2022-09-15T01:29:43.965Z,527.28
2022-09-15T01:32:53.088Z,528.08
2022-09-15T01:35:39.108Z,531.45
2022-09-15T01:38:22.411Z,528.05
2022-09-15T01:41:09.950Z,527.05
2022-09-15T01:43:44.176Z,528.28
2022-09-15T01:46:15.798Z,527.92
2022-09-15T01:48:44.655Z,526.13
2022-09-15T01:51:12.420Z,526.47
2022-09-15T01:53:41.005Z,537.45
2022-09-15T01:56:21.751Z,530.17
2022-09-15T01:58:51.493Z,533.58
2022-09-15T02:01:54.195Z,528.88
2022-09-15T02:04:33.377Z,525.63
2022-09-15T02:07:35.664Z,527.33
2022-09-15T02:10:11.770Z,528.83
2022-09-15T02:13:06.376Z,527.33
2022-09-15T02:15:43.033Z,525.45
2022-09-15T02:18:14.355Z,527.90
2022-09-15T02:20:57.930Z,527.08
2022-09-15T02:23:33.015Z,530.20
2022-09-15T02:26:07.926Z,524.80
2022-09-15T02:28:38.922Z,527.67
2022-09-15T02:31:11.642Z,523.38
2022-09-15T02:34:05.962Z,531.17
2022-09-15T02:36:34.572Z,525.10
2022-09-15T02:39:07.399Z,524.55
2022-09-15T02:41:36.811Z,359.55
2022-09-15T02:44:04.413Z,526.83
2022-09-15T02:46:32.025Z,523.83
2022-09-15T02:48:59.367Z,525.35
2022-09-15T02:51:26.793Z,525.50
2022-09-15T02:53:54.828Z,528.30
2022-09-15T02:56:22.545Z,528.28
2022-09-15T02:58:49.864Z,528.88
2022-09-15T03:01:18.254Z,527.40
2022-09-15T03:03:46.722Z,528.78
2022-09-15T03:06:17.948Z,528.33
2022-09-15T03:08:49.830Z,530.88
2022-09-15T03:11:19.467Z,528.58
2022-09-15T03:13:47.368Z,527.58
2022-09-15T03:16:16.490Z,528.00
2022-09-15T03:18:44.062Z,528.08
2022-09-15T03:21:14.181Z,527.78
2022-09-15T03:23:42.530Z,529.95
2022-09-15T03:26:10.928Z,527.75
2022-09-15T03:28:39.258Z,528.58
2022-09-15T03:31:08.232Z,526.85
2022-09-15T03:33:36.823Z,529.50
2022-09-15T03:36:04.868Z,528.50
2022-09-15T03:38:32.401Z,526.55
2022-09-15T03:41:06.501Z,526.17
2022-09-15T03:43:34.958Z,525.70
2022-09-15T03:46:03.509Z,529.10
2022-09-15T03:48:33.451Z,524.40
2022-09-15T03:51:00.966Z,527.28
2022-09-15T03:53:28.461Z,527.55
2022-09-15T03:55:55.755Z,526.78
2022-09-15T03:58:23.317Z,526.35
2022-09-15T04:00:51.112Z,526.95
2022-09-15T04:03:18.459Z,530.17
2022-09-15T04:05:45.805Z,527.65
2022-09-15T04:08:13.569Z,523.95
2022-09-15T04:10:41.604Z,530.13
2022-09-15T04:13:09.417Z,530.13
2022-09-15T04:15:37.120Z,529.05
2022-09-15T04:18:05.099Z,527.97
2022-09-15T04:20:32.673Z,531.45
2022-09-15T04:23:00.090Z,531.33
2022-09-15T04:25:28.060Z,531.90
2022-09-15T04:27:57.175Z,531.67
2022-09-15T04:30:24.599Z,532.50
2022-09-15T04:32:52.591Z,533.80
2022-09-15T04:35:22.127Z,532.78
2022-09-15T04:37:49.609Z,531.42
2022-09-15T04:40:16.934Z,534.55
2022-09-15T04:42:44.344Z,535.58
2022-09-15T04:45:11.841Z,533.28
2022-09-15T04:47:39.353Z,533.38
2022-09-15T04:50:07.032Z,530.70
2022-09-15T04:52:34.372Z,538.15
2022-09-15T04:55:01.697Z,533.40
2022-09-15T04:57:29.110Z,536.35
2022-09-15T04:59:56.420Z,535.72
2022-09-15T05:02:23.916Z,534.58
2022-09-15T05:04:51.814Z,533.17
2022-09-15T05:07:19.290Z,534.88
2022-09-15T05:09:46.624Z,529.72
2022-09-15T05:12:14.346Z,537.53
2022-09-15T05:14:41.557Z,537.97
2022-09-15T05:17:09.056Z,537.30
2022-09-15T05:19:36.294Z,531.50
2022-09-15T05:22:03.543Z,540.08
2022-09-15T05:24:30.836Z,536.17
2022-09-15T05:26:58.178Z,537.22
2022-09-15T05:29:25.548Z,536.75
2022-09-15T05:31:52.983Z,534.28
2022-09-15T05:34:20.414Z,540.03
2022-09-15T05:36:47.810Z,535.08
2022-09-15T05:39:15.168Z,536.55
2022-09-15T05:41:42.669Z,534.70
2022-09-15T05:44:12.739Z,540.15
2022-09-15T05:46:40.267Z,536.80
2022-09-15T05:49:08.960Z,535.92
2022-09-15T05:51:36.837Z,535.90
2022-09-15T05:54:04.424Z,536.13
2022-09-15T05:56:31.851Z,537.67
2022-09-15T05:58:59.645Z,537.78
2022-09-15T06:01:29.171Z,539.08
2022-09-15T06:03:57.856Z,535.33
2022-09-15T06:06:26.522Z,534.05
2022-09-15T06:08:58.422Z,533.55
2022-09-15T06:11:35.552Z,538.23
2022-09-15T06:14:04.254Z,536.20
2022-09-15T06:16:34.034Z,537.10
2022-09-15T06:19:02.247Z,539.60
2022-09-15T06:21:31.243Z,537.08
2022-09-15T06:24:01.423Z,540.90
2022-09-15T06:26:29.211Z,541.38
2022-09-15T06:29:01.719Z,546.70
2022-09-15T06:31:31.941Z,377.97
2022-09-15T06:34:00.704Z,549.03
2022-09-15T06:36:29.874Z,546.50
2022-09-15T06:38:57.705Z,544.03
2022-09-15T06:41:25.720Z,548.25
2022-09-15T06:43:53.387Z,543.40
2022-09-15T06:46:23.773Z,542.35
2022-09-15T06:48:52.198Z,544.17
2022-09-15T06:51:22.960Z,543.13
2022-09-15T06:53:50.815Z,537.08
2022-09-15T06:56:20.647Z,534.20
2022-09-15T06:58:49.568Z,535.53
2022-09-15T07:01:25.999Z,537.28
2022-09-15T07:03:54.078Z,539.15
2022-09-15T07:06:22.299Z,536.50
2022-09-15T07:08:50.262Z,535.50
2022-09-15T07:11:18.604Z,536.25
2022-09-15T07:13:47.613Z,533.90
2022-09-15T07:16:15.438Z,537.92
2022-09-15T07:18:43.722Z,533.30
2022-09-15T07:21:16.879Z,536.95
2022-09-15T07:23:44.934Z,537.03
2022-09-15T07:26:16.401Z,535.33
2022-09-15T07:28:46.334Z,530.65
2022-09-15T07:31:16.930Z,529.55
2022-09-15T07:33:44.802Z,519.53
2022-09-15T07:36:12.887Z,520.30
2022-09-15T07:38:42.400Z,528.40
2022-09-15T07:41:14.832Z,526.58
2022-09-15T07:43:50.071Z,538.63
2022-09-15T07:46:17.980Z,531.35
2022-09-15T07:48:46.375Z,524.42
2022-09-15T07:51:14.054Z,520.15
2022-09-15T07:53:41.896Z,514.80
2022-09-15T07:56:09.579Z,514.40
2022-09-15T07:58:36.952Z,540.15
2022-09-15T08:01:06.469Z,516.53
2022-09-15T08:03:34.237Z,520.92
2022-09-15T08:06:03.447Z,526.97
2022-09-15T08:08:31.257Z,513.30
2022-09-15T08:10:58.531Z,510.00
2022-09-15T08:13:25.773Z,512.78
2022-09-15T08:15:53.186Z,508.83
2022-09-15T08:18:20.479Z,505.02
2022-09-15T08:20:47.782Z,502.48
2022-09-15T08:23:15.058Z,499.00
2022-09-15T08:25:42.414Z,501.90
2022-09-15T08:28:09.834Z,496.10
2022-09-15T08:30:37.319Z,492.40
2022-09-15T08:33:04.759Z,497.75
2022-09-15T08:35:32.907Z,494.27
2022-09-15T08:38:00.166Z,484.15
2022-09-15T08:40:44.458Z,487.77
2022-09-15T08:43:27.076Z,492.20
2022-09-15T08:45:59.546Z,498.58
2022-09-15T08:48:45.764Z,491.97
2022-09-15T08:51:23.843Z,491.08
2022-09-15T08:53:59.923Z,491.35
2022-09-15T08:56:29.198Z,491.70
2022-09-15T08:58:56.634Z,498.30
2022-09-15T09:01:23.997Z,510.65
2022-09-15T09:04:26.859Z,511.88
2022-09-15T09:07:06.132Z,519.22
2022-09-15T09:10:05.847Z,517.15
2022-09-15T09:12:38.702Z,525.38
2022-09-15T09:15:25.431Z,503.20
2022-09-15T09:18:23.042Z,520.92
2022-09-15T09:21:13.935Z,516.65
2022-09-15T09:24:05.401Z,511.13
2022-09-15T09:26:36.322Z,517.03
2022-09-15T09:29:19.789Z,513.88
2022-09-15T09:31:50.682Z,519.85
2022-09-15T09:34:26.631Z,513.88
2022-09-15T09:37:01.288Z,514.78
2022-09-15T09:39:28.943Z,508.70
2022-09-15T09:41:56.389Z,515.15
2022-09-15T09:44:32.122Z,513.50
2022-09-15T09:47:00.638Z,512.28
2022-09-15T09:49:34.823Z,511.13
2022-09-15T09:52:03.817Z,509.35
2022-09-15T09:54:33.438Z,509.20
2022-09-15T09:57:22.384Z,514.45
2022-09-15T09:59:50.963Z,512.78
2022-09-15T10:02:19.713Z,515.95
2022-09-15T10:04:51.482Z,516.50
2022-09-15T10:07:22.921Z,507.33
2022-09-15T10:09:58.989Z,511.40
2022-09-15T10:12:38.847Z,503.27
2022-09-15T10:15:20.488Z,500.70
2022-09-15T10:17:49.835Z,499.35
2022-09-15T10:20:32.578Z,516.00
2022-09-15T10:23:31.135Z,333.60
2022-09-15T10:26:16.541Z,503.60
2022-09-15T10:28:45.127Z,511.52
2022-09-15T10:31:17.224Z,514.83
2022-09-15T10:33:46.272Z,496.10
2022-09-15T10:36:17.578Z,494.05
2022-09-15T10:38:56.874Z,490.27
2022-09-15T10:41:31.852Z,502.45
2022-09-15T10:44:07.107Z,506.50
2022-09-15T10:46:39.344Z,499.88
2022-09-15T10:49:23.076Z,504.63
2022-09-15T10:52:22.344Z,512.25
2022-09-15T10:55:42.143Z,485.33
2022-09-15T10:58:33.348Z,485.88
2022-09-15T11:01:24.029Z,476.30
2022-09-15T11:04:21.778Z,480.83
2022-09-15T11:07:18.498Z,482.42
2022-09-15T11:09:56.013Z,486.15
2022-09-15T11:12:43.691Z,461.55
2022-09-15T11:15:37.420Z,500.75
2022-09-15T11:18:19.951Z,490.15
2022-09-15T11:21:11.757Z,498.08
2022-09-15T11:23:57.420Z,482.75
2022-09-15T11:26:42.612Z,485.55
2022-09-15T11:29:31.460Z,477.15
2022-09-15T11:32:06.600Z,486.58
2022-09-15T11:34:40.010Z,487.42
2022-09-15T11:40:08.196Z,487.38
2022-09-15T11:42:46.776Z,480.75
2022-09-15T11:45:20.449Z,493.65
2022-09-15T11:47:53.244Z,486.45
2022-09-15T11:50:32.738Z,332.67
2022-09-15T11:53:22.038Z,480.27
2022-09-15T11:56:01.716Z,489.13
2022-09-15T11:58:46.555Z,471.02
2022-09-15T12:01:28.828Z,471.90
2022-09-15T12:04:02.390Z,488.15
2022-09-15T12:09:06.000Z,494.90
2022-09-15T12:11:41.535Z,456.48
2022-09-15T12:14:28.577Z,430.35
2022-09-15T12:16:57.810Z,433.45
2022-09-15T12:19:33.811Z,552.97
2022-09-15T12:22:03.907Z,576.58
2022-09-15T12:24:37.461Z,549.63
2022-09-15T12:27:05.159Z,556.10
2022-09-15T12:29:49.454Z,543.70
2022-09-15T12:32:31.169Z,615.88
2022-09-15T12:35:16.589Z,613.38
2022-09-15T12:38:13.100Z,615.20
2022-09-15T12:40:41.875Z,613.70
2022-09-15T12:43:12.937Z,617.22
2022-09-15T12:45:53.648Z,611.33
2022-09-15T12:48:46.763Z,615.28
2022-09-15T12:51:25.525Z,618.60
2022-09-15T12:54:05.580Z,619.88
2022-09-15T12:56:35.004Z,614.70
2022-09-15T12:59:07.281Z,611.35
2022-09-15T13:01:43.794Z,592.47
2022-09-15T13:04:44.522Z,599.08
2022-09-15T13:07:18.718Z,586.22
2022-09-15T13:10:09.324Z,583.67
2022-09-15T13:12:41.400Z,576.60
2022-09-15T13:15:16.141Z,577.75
2022-09-15T13:17:46.922Z,580.78
2022-09-15T13:20:24.233Z,577.25
2022-09-15T13:22:56.520Z,581.28
2022-09-15T13:25:30.502Z,575.33
2022-09-15T13:28:02.585Z,568.03
2022-09-15T13:30:41.477Z,571.90
2022-09-15T13:40:27.647Z,562.53
2022-09-15T13:43:12.815Z,565.38
2022-09-15T13:46:22.668Z,562.83
2022-09-15T13:49:15.868Z,544.90
2022-09-15T13:51:48.378Z,545.73
2022-09-15T13:54:20.150Z,535.67
2022-09-15T13:56:49.382Z,548.90
2022-09-15T13:59:27.870Z,544.38
2022-09-15T14:01:55.669Z,540.38
2022-09-15T14:04:26.335Z,537.40
2022-09-15T14:07:00.066Z,537.67
2022-09-15T14:09:37.633Z,529.40
2022-09-15T14:12:16.720Z,527.15
2022-09-15T14:14:51.743Z,517.65
2022-09-15T14:17:22.718Z,534.67
2022-09-15T14:19:52.759Z,529.95
2022-09-15T14:22:41.054Z,511.40
2022-09-15T14:25:17.263Z,530.90
2022-09-15T14:27:50.068Z,526.20
2022-09-15T14:30:20.579Z,350.90
2022-09-15T14:32:52.431Z,524.00
2022-09-15T14:35:26.751Z,510.45
2022-09-15T14:37:59.436Z,510.77
2022-09-15T14:40:31.718Z,355.38
2022-09-15T14:42:59.117Z,516.65
2022-09-15T14:48:30.221Z,528.83
2022-09-15T14:51:42.069Z,531.45
2022-09-15T14:54:24.053Z,522.67
2022-09-15T14:56:52.935Z,515.83
2022-09-15T14:59:27.195Z,524.53
2022-09-15T15:02:12.343Z,533.85
2022-09-15T15:04:42.404Z,508.45
2022-09-15T15:07:23.040Z,514.20
2022-09-15T15:10:21.476Z,501.13
2022-09-15T15:13:18.556Z,504.52
2022-09-15T15:15:46.713Z,502.63
2022-09-15T15:18:35.813Z,505.92
2022-09-15T15:21:03.836Z,475.40
2022-09-15T15:23:32.287Z,464.40
2022-09-15T15:26:38.284Z,469.10
2022-09-15T15:29:09.407Z,460.20
2022-09-15T15:31:40.442Z,473.25
2022-09-15T15:34:24.063Z,455.30
2022-09-15T15:36:51.558Z,455.27
2022-09-15T15:39:25.246Z,459.65
2022-09-15T15:42:02.742Z,456.13
2022-09-15T15:44:31.351Z,449.70
2022-09-15T15:47:04.118Z,454.85
2022-09-15T15:49:32.722Z,439.48
2022-09-15T15:52:01.442Z,469.02
2022-09-15T15:54:29.570Z,465.98
2022-09-15T15:57:21.145Z,473.95
2022-09-15T15:59:48.651Z,481.40
2022-09-15T16:02:16.331Z,469.17
2022-09-15T16:04:43.850Z,475.85
2022-09-15T16:07:17.405Z,477.23
2022-09-15T16:09:47.024Z,486.02
2022-09-15T16:12:15.132Z,491.90
2022-09-15T16:14:42.929Z,463.10
2022-09-15T16:17:10.990Z,469.70
2022-09-15T16:19:38.801Z,474.02
2022-09-15T16:22:06.292Z,481.60
2022-09-15T16:24:33.714Z,481.45
2022-09-15T16:27:00.995Z,483.42
2022-09-15T16:29:36.312Z,482.88
2022-09-15T16:32:05.945Z,477.83
2022-09-15T16:34:33.384Z,498.20
2022-09-15T16:37:01.370Z,482.98
2022-09-15T16:39:28.857Z,477.15
2022-09-15T16:41:56.377Z,482.85
2022-09-15T16:44:23.993Z,477.60
2022-09-15T16:46:51.571Z,497.83
2022-09-15T16:49:18.951Z,499.05
2022-09-15T16:51:46.430Z,467.00
2022-09-15T16:54:18.854Z,468.77
2022-09-15T16:56:46.651Z,328.63
2022-09-15T16:59:14.314Z,476.67
2022-09-15T17:01:41.751Z,480.20
2022-09-15T17:04:14.682Z,478.02
2022-09-15T17:06:42.947Z,473.63
2022-09-15T17:09:10.350Z,489.40
2022-09-15T17:11:37.821Z,501.27
2022-09-15T17:14:05.396Z,493.15
2022-09-15T17:16:32.858Z,474.25
2022-09-15T17:19:00.294Z,479.90
2022-09-15T17:21:27.728Z,478.05
2022-09-15T17:23:55.136Z,470.13
2022-09-15T17:26:30.500Z,474.85
2022-09-15T17:28:58.762Z,483.00
2022-09-15T17:31:28.221Z,487.23
2022-09-15T17:33:55.751Z,476.85
2022-09-15T17:36:23.144Z,466.38
2022-09-15T17:38:50.658Z,488.17
2022-09-15T17:41:19.902Z,446.85
2022-09-15T17:43:47.503Z,471.50
2022-09-15T17:46:15.092Z,475.17
2022-09-15T17:48:42.648Z,474.95
2022-09-15T17:51:15.760Z,496.33
2022-09-15T17:53:43.403Z,492.38
2022-09-15T17:56:10.838Z,490.75
2022-09-15T17:58:38.606Z,490.33
2022-09-15T18:01:06.170Z,486.92
2022-09-15T18:03:36.053Z,477.90
2022-09-15T18:06:08.370Z,464.60
2022-09-15T18:08:36.435Z,472.35
2022-09-15T18:11:05.501Z,468.52
2022-09-15T18:13:34.269Z,465.48
2022-09-15T18:16:07.103Z,461.85
2022-09-15T18:18:34.639Z,316.05
2022-09-15T18:21:07.290Z,464.70
2022-09-15T18:23:35.234Z,333.30
2022-09-15T18:26:02.687Z,485.48
2022-09-15T18:28:30.108Z,493.23
2022-09-15T18:30:57.597Z,489.20
2022-09-15T18:33:26.451Z,494.75
2022-09-15T18:35:55.907Z,497.33
2022-09-15T18:38:23.859Z,494.55
2022-09-15T18:40:53.663Z,487.33
2022-09-15T18:43:22.745Z,482.45
2022-09-15T18:45:50.562Z,478.20
2022-09-15T18:48:18.084Z,477.98
2022-09-15T18:50:46.134Z,482.45
2022-09-15T18:53:14.274Z,484.52
2022-09-15T18:55:42.261Z,483.30
2022-09-15T18:58:11.050Z,479.92
2022-09-15T19:00:38.619Z,483.05
2022-09-15T19:03:09.533Z,509.77
2022-09-15T19:05:37.692Z,514.47
2022-09-15T19:08:05.227Z,510.95
2022-09-15T19:10:32.704Z,508.20
2022-09-15T19:13:00.148Z,466.60
2022-09-15T19:15:29.483Z,479.52
2022-09-15T19:17:56.713Z,470.27
2022-09-15T19:20:24.079Z,470.52
2022-09-15T19:22:51.829Z,473.65
2022-09-15T19:25:19.279Z,489.02
2022-09-15T19:27:48.035Z,491.33
2022-09-15T19:30:15.528Z,480.27
2022-09-15T19:32:43.199Z,477.83
2022-09-15T19:35:11.493Z,471.35
2022-09-15T19:37:41.608Z,473.27
2022-09-15T19:40:13.137Z,477.75
2022-09-15T19:42:42.551Z,478.60
2022-09-15T19:45:11.549Z,475.20
2022-09-15T19:47:39.951Z,477.10
2022-09-15T19:50:08.747Z,464.38
2022-09-15T19:52:36.284Z,468.90
2022-09-15T19:55:06.827Z,480.55
2022-09-15T19:57:34.188Z,471.55
2022-09-15T20:00:01.440Z,481.45
2022-09-15T20:02:31.776Z,488.10
2022-09-15T20:04:59.463Z,478.80
2022-09-15T20:07:26.770Z,474.92
2022-09-15T20:09:55.479Z,479.45
2022-09-15T20:12:22.775Z,474.35
2022-09-15T20:14:50.101Z,473.70
2022-09-15T20:17:17.575Z,498.73
2022-09-15T20:19:44.926Z,500.55
2022-09-15T20:22:12.120Z,497.25
2022-09-15T20:24:40.384Z,502.23
2022-09-15T20:27:09.051Z,503.48
2022-09-15T20:29:36.353Z,490.20
2022-09-15T20:32:03.645Z,495.95
2022-09-15T20:34:31.217Z,496.15
2022-09-15T20:36:58.551Z,473.52
2022-09-15T20:39:26.051Z,468.13
2022-09-15T20:41:53.337Z,470.35
2022-09-15T20:44:20.739Z,469.73
2022-09-15T20:46:48.106Z,479.27
2022-09-15T20:49:16.023Z,470.73
2022-09-15T20:51:43.272Z,471.73
2022-09-15T20:54:11.101Z,475.08
2022-09-15T20:56:38.454Z,475.27
2022-09-15T20:59:07.903Z,457.98
2022-09-15T21:01:37.347Z,465.23
2022-09-15T21:04:06.864Z,469.45
2022-09-15T21:06:34.500Z,469.40
2022-09-15T21:09:01.850Z,468.83
2022-09-15T21:11:30.243Z,466.02
2022-09-15T21:13:58.831Z,462.20
2022-09-15T21:16:28.775Z,463.75
2022-09-15T21:18:58.176Z,464.73
2022-09-15T21:21:30.381Z,467.45
2022-09-15T21:24:01.960Z,472.83
2022-09-15T21:26:31.812Z,475.75
2022-09-15T21:28:59.316Z,465.00
2022-09-15T21:31:32.030Z,464.65
2022-09-15T21:34:00.129Z,329.48
2022-09-15T21:36:29.874Z,470.08
2022-09-15T21:38:59.417Z,470.55
2022-09-15T21:41:29.885Z,480.63
2022-09-15T21:43:59.214Z,473.58
2022-09-15T21:46:29.117Z,461.55
2022-09-15T21:48:57.995Z,464.23
2022-09-15T21:51:26.901Z,460.73
2022-09-15T21:53:56.288Z,469.13
2022-09-15T21:56:25.208Z,475.20
2022-09-15T21:58:52.664Z,477.80
2022-09-15T22:01:22.912Z,471.00
2022-09-15T22:03:51.733Z,464.35
2022-09-15T22:06:20.945Z,466.27
2022-09-15T22:08:48.764Z,464.67
2022-09-15T22:11:16.108Z,469.63
2022-09-15T22:13:44.885Z,457.02
2022-09-15T22:16:18.544Z,456.92
2022-09-15T22:18:46.526Z,463.50
2022-09-15T22:21:17.934Z,467.15
2022-09-15T22:23:46.826Z,469.77
2022-09-15T22:26:17.976Z,469.13
2022-09-15T22:28:46.055Z,466.20
2022-09-15T22:31:15.130Z,466.73
2022-09-15T22:33:42.603Z,460.42
2022-09-15T22:36:19.592Z,462.52
2022-09-15T22:38:47.547Z,455.70
2022-09-15T22:41:17.457Z,444.92
2022-09-15T22:43:48.123Z,448.85
2022-09-15T22:46:17.145Z,458.40
2022-09-15T22:48:44.522Z,449.48
2022-09-15T22:51:12.817Z,434.65
2022-09-15T22:53:40.209Z,444.52
2022-09-15T22:56:21.222Z,470.52
2022-09-15T22:58:50.019Z,462.73
2022-09-15T23:01:20.032Z,463.55
2022-09-15T23:03:56.108Z,454.67
2022-09-15T23:06:24.741Z,456.25
2022-09-15T23:08:57.754Z,448.15
2022-09-15T23:11:26.217Z,302.85
2022-09-15T23:13:54.934Z,445.33
2022-09-15T23:16:24.337Z,445.70
2022-09-15T23:18:52.939Z,446.58
2022-09-15T23:21:21.229Z,434.85
2022-09-15T23:23:49.468Z,464.40
2022-09-15T23:26:19.147Z,464.15
2022-09-15T23:28:46.559Z,462.17
2022-09-15T23:31:14.619Z,460.73
2022-09-15T23:33:42.599Z,461.38
2022-09-15T23:36:12.804Z,468.20
2022-09-15T23:38:41.881Z,463.40
2022-09-15T23:41:10.713Z,466.80
2022-09-15T23:43:38.202Z,452.65
2022-09-15T23:46:05.773Z,452.83
2022-09-15T23:48:33.340Z,459.70
2022-09-15T23:51:01.359Z,465.75
2022-09-15T23:53:29.105Z,458.52
2022-09-15T23:55:56.705Z,461.33
2022-09-15T23:58:24.848Z,461.30
